AirNav   Pilot Hours Calculator
 
 948 users online  

OG31 Shady Cove Airpark
Shady Cove, Oregon, USA

GOING TO SHADY COVE?


FAA INFORMATION EFFECTIVE 07 NOVEMBER 2019

Location

FAA Identifier: OG31
Lat/Long: 42-36-31.4050N 122-49-45.9700W
42-36.523417N 122-49.766167W
42.6087236,-122.8294361
(estimated)
Elevation: 1522 ft. / 464 m (estimated)
Variation: 18E (1985)
From city: 1 mile W of SHADY COVE, OR
Time zone: UTC -8 (UTC -7 during Daylight Saving Time)
Zip code: 97539

Airport Operations

Airport use: Private use. Permission required prior to landing
Activation date: 08/1949
Control tower: no
ARTCC: SEATTLE CENTER
FSS: MC MINNVILLE FLIGHT SERVICE STATION
Attendance: UNATNDD
Wind indicator: yes
Segmented circle: no

Airport Communications

WX ASOS at MFR (14 nm S): 127.25 (541-776-1238)

Nearby radio navigation aids

VOR radial/distance  VOR name  Freq  Var
OEDr006/8.6ROGUE VALLEY VORTAC113.6019E

 
NDB name  Hdg/Dist  Freq  Var  ID
MEDFORD354/13.235616EMEF -- . ..-.

Airport Services

Parking: hangars
Airframe service: NONE
Powerplant service: NONE

Runway Information

Runway 18/36

Dimensions: 2600 x 25 ft. / 792 x 8 m
Surface: turf/gravel
RUNWAY 18  RUNWAY 36
Latitude: 42-36.732500N42-36.314333N
Longitude: 122-49.704167W122-49.828167W
Elevation: 1522.0 ft.1508.0 ft.
Traffic pattern: rightleft
Markings: nonenone
Obstructions: 80 ft. pline, 100 ft. from runway
PLINES INDISTINGUISHABLE BOTH ENDS BECAUSE OF TREES, NO MARKERS.
100 ft. pline, 100 ft. from runway

Airport Ownership and Management from official FAA records

Ownership: Privately-owned
Owner: ROGUE AIR INC
P O BOX 1550
SHADY COVE, OR 97539
Phone 541-878-3600
Manager: TIM TEPPER
PO BOX 1550
SHADY COVE, OR 97539
Phone 541-878-3600

Airport Operational Statistics

Aircraft based on the field: 18
Single engine airplanes: 15
Gliders airplanes: 2
Ultralights: 1
    
Aircraft operations: avg 84/month *
49% transient general aviation
49% local general aviation
1% air taxi
* for 12-month period ending 29 April 1982

Additional Remarks

RWY SFC GRASSED; SOFT SPOTS NORTH END. DO NOT LAND WHEN WATER VISIBLE.
FOR CD CTC CASCADE APCH AT 541-607-4676/4675, WHEN APCH CLSD CTC SEATTLE ARTCC AT 253-351-3694.

Instrument Procedures

There are no published instrument procedures at OG31.

Some nearby airports with instrument procedures:

KMFR - Rogue Valley International - Medford Airport (14 nm S)
3S8 - Grants Pass Airport (25 nm W)
KRBG - Roseburg Regional Airport (44 nm NW)
KSIY - Siskiyou County Airport (52 nm S)
KLMT - Crater Lake-Klamath Regional Airport (56 nm SE)
 
Loc | Ops | Rwys | IFR | FBO | Links
Com | Nav | Svcs | Stats | Notes
Area around OG31 (Shady Cove Airpark)
 
Road maps at: MapQuest Bing Google
 
Aerial photo
WARNING: Photo may not be current or correct
Aerial photo of OG31 (Shady Cove Airpark)
Do you have a better or more recent aerial photo of Shady Cove Airpark that you would like to share? If so, please send us your photo.

 
Sectional chart

 
Airport distance calculator
Flying to Shady Cove Airpark? Find the distance to fly.

From to OG31

Sunrise and sunset
Times for 19-Nov-2019
 Local
(UTC-8)
 Zulu
(UTC)
Morning civil twilight06:3814:38
Sunrise07:0915:09
Sunset16:4500:45
Evening civil twilight17:1501:15

Current date and time
Zulu (UTC)  19-Nov-2019 12:47:03
Local (UTC-8)  19-Nov-2019 04:47:03
 
METAR
KMFR 
14nm S 
191153Z AUTO 20004KT 10SM BKN055 OVC070 09/04 A2983 RMK AO2 SLP100 60002 70002 T00890039 10128 20078 58002
KSXT 
24nm W 
191232Z AUTO 20009G17KT 1/4SM -RA FG VV001 04/03 A2980 RMK AO2 P0000 T00440033 $
K3S8 
25nm W 
191235Z AUTO 00000KT 10SM BKN050 OVC065 09/08 A2986 RMK AO2
TAF
KMFR 
14nm S 
191138Z 1912/2012 VRB02KT P6SM -SHRA SCT020 BKN040 BKN070 FM191500 23005KT P6SM -SHRA SCT020 BKN035 BKN070 FM191900 29008KT P6SM -SHRA SCT020 OVC030 FM192100 29010KT P6SM -SHRA BKN025 OVC050 FM200100 33010KT P6SM VCSH SCT030 OVC050 FM200700 VRB03KT 6SM BR OVC025
NOTAMs
Click for the latest NOTAMs
NOTAMs are issued by the DoD/FAA and will open in a separate window not controlled by AirNav.

 

 
 

Would you like to see your business listed on this page?

 If your business provides an interesting product or service to pilots, flight crews, aircraft, or users of the Shady Cove Airpark, you should consider listing it here.  To start the listing process, click on the button below
 
Add a business
 

Other Pages about Shady Cove Airpark

Update a link
 
Copyright © AirNav, LLC. All rights reserved. Privacy Policy  Contact